Terminal Aerodrome Forecast
Issued by NWS

Current Version | Previous Version | Text Only | Print | Product List | Glossary On
Versions: 1 2 3 4 5 6 7 8 9 10 11 12 13
000
FTUS45 KGGW 261731
TAFSDY
TAF
KSDY 261731Z 2618/2718 07006KT P6SM VCTS BKN100CB
     FM270300 VRB05KT P6SM VCTS SCT060CB
     FM271200 VRB04KT P6SM VCSH BKN035
     FM271400 VRB04KT P6SM VCSH BKN025=

USA.gov is the U.S. government's official web portal to all federal, state and local government web resources and services.